sensor_id;sensor_type;location;lat;lon;timestamp;P1;durP1;ratioP1;P2;durP2;ratioP2
33780;SDS011;20097;50.832;19.100;2023-07-31T00:04:03;5.25;;;3.83;;
33780;SDS011;20097;50.832;19.100;2023-07-31T00:09:08;5.05;;;3.80;;
33780;SDS011;20097;50.832;19.100;2023-07-31T00:14:12;3.70;;;3.28;;
33780;SDS011;20097;50.832;19.100;2023-07-31T00:29:26;5.78;;;3.10;;
33780;SDS011;20097;50.832;19.100;2023-07-31T00:34:33;3.28;;;2.97;;
33780;SDS011;20097;50.832;19.100;2023-07-31T00:39:38;4.22;;;3.13;;
33780;SDS011;20097;50.832;19.100;2023-07-31T00:44:42;5.25;;;2.70;;
33780;SDS011;20097;50.832;19.100;2023-07-31T00:49:48;3.35;;;2.88;;
33780;SDS011;20097;50.832;19.100;2023-07-31T00:54:53;3.67;;;2.85;;
33780;SDS011;20097;50.832;19.100;2023-07-31T00:59:57;4.68;;;2.67;;
33780;SDS011;20097;50.832;19.100;2023-07-31T01:05:03;3.92;;;2.33;;
33780;SDS011;20097;50.832;19.100;2023-07-31T01:10:11;9.00;;;3.15;;
33780;SDS011;20097;50.832;19.100;2023-07-31T01:15:20;3.88;;;2.95;;
33780;SDS011;20097;50.832;19.100;2023-07-31T01:20:26;3.28;;;2.50;;
33780;SDS011;20097;50.832;19.100;2023-07-31T01:25:43;4.75;;;2.88;;
33780;SDS011;20097;50.832;19.100;2023-07-31T01:30:58;4.55;;;2.80;;
33780;SDS011;20097;50.832;19.100;2023-07-31T01:36:06;3.60;;;2.40;;
33780;SDS011;20097;50.832;19.100;2023-07-31T01:41:12;3.67;;;2.28;;
33780;SDS011;20097;50.832;19.100;2023-07-31T01:46:17;2.97;;;2.03;;
33780;SDS011;20097;50.832;19.100;2023-07-31T01:51:22;3.88;;;2.53;;
33780;SDS011;20097;50.832;19.100;2023-07-31T01:56:27;5.32;;;2.38;;
33780;SDS011;20097;50.832;19.100;2023-07-31T02:01:31;2.30;;;2.10;;
33780;SDS011;20097;50.832;19.100;2023-07-31T02:06:37;5.07;;;2.95;;
33780;SDS011;20097;50.832;19.100;2023-07-31T02:11:44;6.03;;;2.38;;
33780;SDS011;20097;50.832;19.100;2023-07-31T02:16:49;6.10;;;2.70;;
33780;SDS011;20097;50.832;19.100;2023-07-31T02:21:54;3.30;;;2.28;;
33780;SDS011;20097;50.832;19.100;2023-07-31T02:27:00;3.38;;;2.13;;
33780;SDS011;20097;50.832;19.100;2023-07-31T02:32:04;4.38;;;2.25;;
33780;SDS011;20097;50.832;19.100;2023-07-31T02:37:10;4.63;;;2.60;;
33780;SDS011;20097;50.832;19.100;2023-07-31T02:42:16;4.95;;;2.47;;
33780;SDS011;20097;50.832;19.100;2023-07-31T02:47:21;3.42;;;2.28;;
33780;SDS011;20097;50.832;19.100;2023-07-31T02:52:26;7.20;;;2.90;;
33780;SDS011;20097;50.832;19.100;2023-07-31T02:57:31;4.90;;;3.10;;
33780;SDS011;20097;50.832;19.100;2023-07-31T03:02:36;2.85;;;2.60;;
33780;SDS011;20097;50.832;19.100;2023-07-31T03:07:40;4.90;;;2.80;;
33780;SDS011;20097;50.832;19.100;2023-07-31T03:12:47;5.53;;;2.70;;
33780;SDS011;20097;50.832;19.100;2023-07-31T03:17:51;3.72;;;2.67;;
33780;SDS011;20097;50.832;19.100;2023-07-31T03:22:56;3.67;;;2.60;;
33780;SDS011;20097;50.832;19.100;2023-07-31T03:28:02;3.28;;;2.13;;
33780;SDS011;20097;50.832;19.100;2023-07-31T03:33:06;4.80;;;2.88;;
33780;SDS011;20097;50.832;19.100;2023-07-31T03:38:10;8.68;;;2.50;;
33780;SDS011;20097;50.832;19.100;2023-07-31T03:43:16;3.38;;;2.90;;
33780;SDS011;20097;50.832;19.100;2023-07-31T03:48:20;3.40;;;2.30;;
33780;SDS011;20097;50.832;19.100;2023-07-31T03:53:24;4.63;;;2.53;;
33780;SDS011;20097;50.832;19.100;2023-07-31T03:58:30;4.65;;;2.40;;
33780;SDS011;20097;50.832;19.100;2023-07-31T04:03:35;5.72;;;2.75;;
33780;SDS011;20097;50.832;19.100;2023-07-31T04:08:39;3.58;;;2.50;;
33780;SDS011;20097;50.832;19.100;2023-07-31T04:13:44;3.73;;;2.20;;
33780;SDS011;20097;50.832;19.100;2023-07-31T04:18:48;2.70;;;2.20;;
33780;SDS011;20097;50.832;19.100;2023-07-31T04:23:53;4.22;;;2.30;;
33780;SDS011;20097;50.832;19.100;2023-07-31T04:39:07;3.20;;;2.53;;
33780;SDS011;20097;50.832;19.100;2023-07-31T04:44:13;3.58;;;1.90;;
33780;SDS011;20097;50.832;19.100;2023-07-31T04:49:17;6.55;;;2.40;;
33780;SDS011;20097;50.832;19.100;2023-07-31T04:54:22;5.70;;;2.50;;
33780;SDS011;20097;50.832;19.100;2023-07-31T04:59:30;3.40;;;2.25;;
33780;SDS011;20097;50.832;19.100;2023-07-31T05:04:34;5.03;;;2.80;;
33780;SDS011;20097;50.832;19.100;2023-07-31T05:09:39;2.92;;;2.30;;
33780;SDS011;20097;50.832;19.100;2023-07-31T05:14:44;3.95;;;2.30;;
33780;SDS011;20097;50.832;19.100;2023-07-31T05:19:49;4.30;;;2.60;;
33780;SDS011;20097;50.832;19.100;2023-07-31T05:24:54;10.38;;;2.70;;
33780;SDS011;20097;50.832;19.100;2023-07-31T05:29:59;5.70;;;2.40;;
33780;SDS011;20097;50.832;19.100;2023-07-31T05:35:05;4.80;;;2.83;;
33780;SDS011;20097;50.832;19.100;2023-07-31T05:40:11;7.35;;;3.95;;
33780;SDS011;20097;50.832;19.100;2023-07-31T05:45:16;4.22;;;2.58;;
33780;SDS011;20097;50.832;19.100;2023-07-31T05:50:21;4.20;;;2.63;;
33780;SDS011;20097;50.832;19.100;2023-07-31T05:55:25;3.63;;;2.28;;
33780;SDS011;20097;50.832;19.100;2023-07-31T06:00:32;3.63;;;2.28;;
33780;SDS011;20097;50.832;19.100;2023-07-31T06:05:36;6.35;;;2.95;;
33780;SDS011;20097;50.832;19.100;2023-07-31T06:10:40;6.53;;;3.20;;
33780;SDS011;20097;50.832;19.100;2023-07-31T06:15:46;4.05;;;2.22;;
33780;SDS011;20097;50.832;19.100;2023-07-31T06:20:51;4.95;;;2.10;;
33780;SDS011;20097;50.832;19.100;2023-07-31T06:25:56;2.50;;;2.20;;
33780;SDS011;20097;50.832;19.100;2023-07-31T06:31:02;6.35;;;1.98;;
33780;SDS011;20097;50.832;19.100;2023-07-31T06:36:07;2.47;;;2.15;;
33780;SDS011;20097;50.832;19.100;2023-07-31T06:41:11;2.65;;;1.83;;
33780;SDS011;20097;50.832;19.100;2023-07-31T06:56:25;4.22;;;2.30;;
33780;SDS011;20097;50.832;19.100;2023-07-31T07:01:31;3.67;;;2.20;;
33780;SDS011;20097;50.832;19.100;2023-07-31T07:06:35;3.35;;;2.20;;
33780;SDS011;20097;50.832;19.100;2023-07-31T07:11:40;7.38;;;2.50;;
33780;SDS011;20097;50.832;19.100;2023-07-31T07:16:46;3.05;;;1.70;;
33780;SDS011;20097;50.832;19.100;2023-07-31T07:21:54;4.13;;;2.20;;
33780;SDS011;20097;50.832;19.100;2023-07-31T07:26:59;7.05;;;2.33;;
33780;SDS011;20097;50.832;19.100;2023-07-31T07:32:05;3.17;;;1.85;;
33780;SDS011;20097;50.832;19.100;2023-07-31T07:37:11;4.45;;;2.13;;
33780;SDS011;20097;50.832;19.100;2023-07-31T07:42:15;5.00;;;1.90;;
33780;SDS011;20097;50.832;19.100;2023-07-31T07:47:21;6.25;;;2.30;;
33780;SDS011;20097;50.832;19.100;2023-07-31T07:52:25;6.70;;;2.00;;
33780;SDS011;20097;50.832;19.100;2023-07-31T07:57:29;3.85;;;1.90;;
33780;SDS011;20097;50.832;19.100;2023-07-31T08:02:35;3.45;;;1.50;;
33780;SDS011;20097;50.832;19.100;2023-07-31T08:07:39;5.95;;;2.50;;
33780;SDS011;20097;50.832;19.100;2023-07-31T08:12:43;3.85;;;1.80;;
33780;SDS011;20097;50.832;19.100;2023-07-31T08:17:49;5.05;;;1.48;;
33780;SDS011;20097;50.832;19.100;2023-07-31T08:22:53;2.60;;;2.03;;
33780;SDS011;20097;50.832;19.100;2023-07-31T08:27:58;4.25;;;1.40;;
33780;SDS011;20097;50.832;19.100;2023-07-31T08:33:04;6.03;;;1.63;;
33780;SDS011;20097;50.832;19.100;2023-07-31T08:38:08;5.47;;;1.90;;
33780;SDS011;20097;50.832;19.100;2023-07-31T08:43:13;4.10;;;1.58;;
33780;SDS011;20097;50.832;19.100;2023-07-31T08:48:18;8.40;;;2.22;;
33780;SDS011;20097;50.832;19.100;2023-07-31T08:53:25;5.60;;;1.67;;
33780;SDS011;20097;50.832;19.100;2023-07-31T08:58:30;4.47;;;1.83;;
33780;SDS011;20097;50.832;19.100;2023-07-31T09:03:37;3.00;;;1.83;;
33780;SDS011;20097;50.832;19.100;2023-07-31T09:08:44;2.55;;;1.50;;
33780;SDS011;20097;50.832;19.100;2023-07-31T09:13:48;3.53;;;1.70;;
33780;SDS011;20097;50.832;19.100;2023-07-31T09:18:55;4.07;;;1.52;;
33780;SDS011;20097;50.832;19.100;2023-07-31T09:24:01;4.30;;;1.77;;
33780;SDS011;20097;50.832;19.100;2023-07-31T09:29:06;4.32;;;1.80;;
33780;SDS011;20097;50.832;19.100;2023-07-31T09:34:28;3.00;;;1.35;;
33780;SDS011;20097;50.832;19.100;2023-07-31T09:39:46;2.92;;;1.52;;
33780;SDS011;20097;50.832;19.100;2023-07-31T09:45:03;3.97;;;1.90;;
33780;SDS011;20097;50.832;19.100;2023-07-31T09:50:13;2.80;;;1.45;;
33780;SDS011;20097;50.832;19.100;2023-07-31T09:55:18;1.85;;;1.35;;
33780;SDS011;20097;50.832;19.100;2023-07-31T10:00:23;3.88;;;1.30;;
33780;SDS011;20097;50.832;19.100;2023-07-31T10:05:34;4.55;;;1.90;;
33780;SDS011;20097;50.832;19.100;2023-07-31T10:10:41;1.73;;;1.38;;
33780;SDS011;20097;50.832;19.100;2023-07-31T10:15:47;3.67;;;1.35;;
33780;SDS011;20097;50.832;19.100;2023-07-31T10:20:53;10.07;;;2.47;;
33780;SDS011;20097;50.832;19.100;2023-07-31T10:25:58;5.03;;;1.98;;
33780;SDS011;20097;50.832;19.100;2023-07-31T10:31:05;2.78;;;1.83;;
33780;SDS011;20097;50.832;19.100;2023-07-31T10:36:14;5.80;;;1.83;;
33780;SDS011;20097;50.832;19.100;2023-07-31T10:41:24;4.03;;;1.38;;
33780;SDS011;20097;50.832;19.100;2023-07-31T10:46:33;2.97;;;1.67;;
33780;SDS011;20097;50.832;19.100;2023-07-31T10:51:39;2.85;;;1.50;;
33780;SDS011;20097;50.832;19.100;2023-07-31T10:56:45;6.15;;;1.90;;
33780;SDS011;20097;50.832;19.100;2023-07-31T11:01:55;4.10;;;1.58;;
33780;SDS011;20097;50.832;19.100;2023-07-31T11:07:01;2.90;;;1.45;;
33780;SDS011;20097;50.832;19.100;2023-07-31T11:12:10;5.55;;;1.30;;
33780;SDS011;20097;50.832;19.100;2023-07-31T11:17:15;4.28;;;1.70;;
33780;SDS011;20097;50.832;19.100;2023-07-31T11:22:20;2.78;;;1.90;;
33780;SDS011;20097;50.832;19.100;2023-07-31T11:27:27;4.63;;;1.60;;
33780;SDS011;20097;50.832;19.100;2023-07-31T11:32:31;2.35;;;1.45;;
33780;SDS011;20097;50.832;19.100;2023-07-31T11:37:40;4.75;;;1.58;;
33780;SDS011;20097;50.832;19.100;2023-07-31T11:42:45;4.72;;;1.60;;
33780;SDS011;20097;50.832;19.100;2023-07-31T11:47:50;2.17;;;1.55;;
33780;SDS011;20097;50.832;19.100;2023-07-31T11:52:57;5.55;;;1.90;;
33780;SDS011;20097;50.832;19.100;2023-07-31T11:58:06;3.55;;;1.88;;
33780;SDS011;20097;50.832;19.100;2023-07-31T12:03:11;2.60;;;1.38;;
33780;SDS011;20097;50.832;19.100;2023-07-31T12:08:17;2.58;;;1.30;;
33780;SDS011;20097;50.832;19.100;2023-07-31T12:13:25;5.20;;;1.25;;
33780;SDS011;20097;50.832;19.100;2023-07-31T12:18:33;5.13;;;1.70;;
33780;SDS011;20097;50.832;19.100;2023-07-31T12:23:43;3.75;;;1.38;;
33780;SDS011;20097;50.832;19.100;2023-07-31T12:28:48;4.63;;;1.80;;
33780;SDS011;20097;50.832;19.100;2023-07-31T12:33:55;3.17;;;1.73;;
33780;SDS011;20097;50.832;19.100;2023-07-31T12:39:01;5.47;;;1.80;;
33780;SDS011;20097;50.832;19.100;2023-07-31T12:44:07;3.60;;;1.60;;
33780;SDS011;20097;50.832;19.100;2023-07-31T12:49:12;7.30;;;1.92;;
33780;SDS011;20097;50.832;19.100;2023-07-31T12:54:18;2.65;;;1.48;;
33780;SDS011;20097;50.832;19.100;2023-07-31T12:59:22;3.42;;;1.50;;
33780;SDS011;20097;50.832;19.100;2023-07-31T13:04:27;3.15;;;1.30;;
33780;SDS011;20097;50.832;19.100;2023-07-31T13:14:36;8.18;;;2.15;;
33780;SDS011;20097;50.832;19.100;2023-07-31T13:19:41;7.78;;;1.80;;
33780;SDS011;20097;50.832;19.100;2023-07-31T13:24:46;2.78;;;1.30;;
33780;SDS011;20097;50.832;19.100;2023-07-31T13:29:51;4.40;;;1.35;;
33780;SDS011;20097;50.832;19.100;2023-07-31T13:34:56;4.07;;;1.55;;
33780;SDS011;20097;50.832;19.100;2023-07-31T13:45:07;2.38;;;1.00;;
33780;SDS011;20097;50.832;19.100;2023-07-31T13:50:12;3.03;;;1.60;;
33780;SDS011;20097;50.832;19.100;2023-07-31T14:00:23;2.63;;;1.70;;
33780;SDS011;20097;50.832;19.100;2023-07-31T14:05:27;3.13;;;1.67;;
33780;SDS011;20097;50.832;19.100;2023-07-31T14:15:37;5.28;;;1.77;;
33780;SDS011;20097;50.832;19.100;2023-07-31T14:20:41;4.60;;;2.13;;
33780;SDS011;20097;50.832;19.100;2023-07-31T14:25:47;2.60;;;2.15;;
33780;SDS011;20097;50.832;19.100;2023-07-31T14:30:51;3.00;;;2.03;;
33780;SDS011;20097;50.832;19.100;2023-07-31T14:35:56;2.88;;;2.30;;
33780;SDS011;20097;50.832;19.100;2023-07-31T14:41:02;2.67;;;2.03;;
33780;SDS011;20097;50.832;19.100;2023-07-31T14:46:06;2.63;;;2.38;;
33780;SDS011;20097;50.832;19.100;2023-07-31T14:51:10;3.75;;;2.15;;
33780;SDS011;20097;50.832;19.100;2023-07-31T14:56:18;2.50;;;2.30;;
33780;SDS011;20097;50.832;19.100;2023-07-31T15:01:23;3.85;;;2.05;;
33780;SDS011;20097;50.832;19.100;2023-07-31T15:06:27;3.25;;;2.20;;
33780;SDS011;20097;50.832;19.100;2023-07-31T15:11:33;5.03;;;2.47;;
33780;SDS011;20097;50.832;19.100;2023-07-31T15:16:37;4.13;;;2.22;;
33780;SDS011;20097;50.832;19.100;2023-07-31T15:21:42;4.40;;;2.20;;
33780;SDS011;20097;50.832;19.100;2023-07-31T15:26:48;4.18;;;2.00;;
33780;SDS011;20097;50.832;19.100;2023-07-31T15:31:52;2.63;;;1.95;;
33780;SDS011;20097;50.832;19.100;2023-07-31T15:36:58;2.70;;;2.20;;
33780;SDS011;20097;50.832;19.100;2023-07-31T15:42:04;2.33;;;2.00;;
33780;SDS011;20097;50.832;19.100;2023-07-31T15:47:11;2.63;;;2.00;;
33780;SDS011;20097;50.832;19.100;2023-07-31T15:52:16;3.42;;;2.05;;
33780;SDS011;20097;50.832;19.100;2023-07-31T15:57:22;2.85;;;1.95;;
33780;SDS011;20097;50.832;19.100;2023-07-31T16:02:29;3.92;;;2.50;;
33780;SDS011;20097;50.832;19.100;2023-07-31T16:07:33;2.72;;;2.47;;
33780;SDS011;20097;50.832;19.100;2023-07-31T16:12:39;3.50;;;2.28;;
33780;SDS011;20097;50.832;19.100;2023-07-31T16:17:44;3.08;;;2.58;;
33780;SDS011;20097;50.832;19.100;2023-07-31T16:22:48;7.45;;;3.05;;
33780;SDS011;20097;50.832;19.100;2023-07-31T16:27:54;3.40;;;2.75;;
33780;SDS011;20097;50.832;19.100;2023-07-31T16:32:59;3.00;;;2.47;;
33780;SDS011;20097;50.832;19.100;2023-07-31T16:38:04;4.35;;;3.00;;
33780;SDS011;20097;50.832;19.100;2023-07-31T16:43:09;5.65;;;2.90;;
33780;SDS011;20097;50.832;19.100;2023-07-31T16:48:14;3.63;;;3.00;;
33780;SDS011;20097;50.832;19.100;2023-07-31T16:53:18;5.93;;;2.90;;
33780;SDS011;20097;50.832;19.100;2023-07-31T16:58:24;3.20;;;2.67;;
33780;SDS011;20097;50.832;19.100;2023-07-31T17:03:28;5.05;;;3.08;;
33780;SDS011;20097;50.832;19.100;2023-07-31T17:13:37;9.93;;;3.97;;
33780;SDS011;20097;50.832;19.100;2023-07-31T17:18:42;4.18;;;3.00;;
33780;SDS011;20097;50.832;19.100;2023-07-31T17:23:46;4.20;;;2.85;;
33780;SDS011;20097;50.832;19.100;2023-07-31T17:28:51;5.63;;;3.30;;
33780;SDS011;20097;50.832;19.100;2023-07-31T17:33:56;3.38;;;2.65;;
33780;SDS011;20097;50.832;19.100;2023-07-31T17:44:06;3.83;;;3.10;;
33780;SDS011;20097;50.832;19.100;2023-07-31T17:49:11;5.50;;;3.28;;
33780;SDS011;20097;50.832;19.100;2023-07-31T17:59:21;6.40;;;3.33;;
33780;SDS011;20097;50.832;19.100;2023-07-31T18:04:25;3.22;;;2.67;;
33780;SDS011;20097;50.832;19.100;2023-07-31T18:09:30;6.10;;;2.80;;
33780;SDS011;20097;50.832;19.100;2023-07-31T18:14:37;7.25;;;3.35;;
33780;SDS011;20097;50.832;19.100;2023-07-31T18:19:42;4.45;;;3.08;;
33780;SDS011;20097;50.832;19.100;2023-07-31T18:24:46;5.18;;;2.60;;
33780;SDS011;20097;50.832;19.100;2023-07-31T18:29:52;3.45;;;3.10;;
33780;SDS011;20097;50.832;19.100;2023-07-31T18:34:56;4.07;;;2.90;;
33780;SDS011;20097;50.832;19.100;2023-07-31T18:45:07;6.75;;;2.30;;
33780;SDS011;20097;50.832;19.100;2023-07-31T18:50:11;6.85;;;2.60;;
33780;SDS011;20097;50.832;19.100;2023-07-31T18:55:16;4.03;;;2.40;;
33780;SDS011;20097;50.832;19.100;2023-07-31T19:00:22;6.53;;;2.78;;
33780;SDS011;20097;50.832;19.100;2023-07-31T19:05:26;6.97;;;4.22;;
33780;SDS011;20097;50.832;19.100;2023-07-31T19:10:30;5.95;;;3.30;;
33780;SDS011;20097;50.832;19.100;2023-07-31T19:15:38;6.13;;;3.35;;
33780;SDS011;20097;50.832;19.100;2023-07-31T19:20:42;7.22;;;4.07;;
33780;SDS011;20097;50.832;19.100;2023-07-31T19:30:52;5.88;;;3.70;;
33780;SDS011;20097;50.832;19.100;2023-07-31T19:35:57;5.97;;;4.25;;
33780;SDS011;20097;50.832;19.100;2023-07-31T19:41:02;5.07;;;3.83;;
33780;SDS011;20097;50.832;19.100;2023-07-31T19:51:13;5.95;;;3.55;;
33780;SDS011;20097;50.832;19.100;2023-07-31T19:56:17;7.25;;;4.18;;
33780;SDS011;20097;50.832;19.100;2023-07-31T20:01:23;10.32;;;4.38;;
33780;SDS011;20097;50.832;19.100;2023-07-31T20:06:28;10.88;;;4.90;;
33780;SDS011;20097;50.832;19.100;2023-07-31T20:11:32;8.02;;;5.13;;
33780;SDS011;20097;50.832;19.100;2023-07-31T20:16:38;8.48;;;4.78;;
33780;SDS011;20097;50.832;19.100;2023-07-31T20:21:44;9.00;;;4.53;;
33780;SDS011;20097;50.832;19.100;2023-07-31T20:26:48;8.23;;;5.75;;
33780;SDS011;20097;50.832;19.100;2023-07-31T20:31:54;9.68;;;5.40;;
33780;SDS011;20097;50.832;19.100;2023-07-31T20:36:58;8.20;;;4.72;;
33780;SDS011;20097;50.832;19.100;2023-07-31T20:47:09;8.02;;;4.68;;
33780;SDS011;20097;50.832;19.100;2023-07-31T20:52:14;12.90;;;4.63;;
33780;SDS011;20097;50.832;19.100;2023-07-31T20:57:18;5.53;;;4.32;;
33780;SDS011;20097;50.832;19.100;2023-07-31T21:02:24;9.50;;;5.30;;
33780;SDS011;20097;50.832;19.100;2023-07-31T21:07:29;12.20;;;5.18;;
33780;SDS011;20097;50.832;19.100;2023-07-31T21:12:33;8.07;;;5.38;;
33780;SDS011;20097;50.832;19.100;2023-07-31T21:17:39;13.23;;;6.07;;
33780;SDS011;20097;50.832;19.100;2023-07-31T21:22:43;9.07;;;6.18;;
33780;SDS011;20097;50.832;19.100;2023-07-31T21:27:48;37.00;;;24.67;;
33780;SDS011;20097;50.832;19.100;2023-07-31T21:32:54;31.33;;;18.25;;
33780;SDS011;20097;50.832;19.100;2023-07-31T21:37:59;16.50;;;8.05;;
33780;SDS011;20097;50.832;19.100;2023-07-31T21:43:04;11.38;;;7.25;;
33780;SDS011;20097;50.832;19.100;2023-07-31T21:48:10;9.23;;;5.32;;
33780;SDS011;20097;50.832;19.100;2023-07-31T21:53:14;9.68;;;4.50;;
33780;SDS011;20097;50.832;19.100;2023-07-31T21:58:18;11.00;;;4.63;;
33780;SDS011;20097;50.832;19.100;2023-07-31T22:03:24;6.55;;;4.50;;
33780;SDS011;20097;50.832;19.100;2023-07-31T22:08:28;9.98;;;4.82;;
33780;SDS011;20097;50.832;19.100;2023-07-31T22:13:32;5.80;;;4.35;;
33780;SDS011;20097;50.832;19.100;2023-07-31T22:18:38;8.00;;;4.40;;
33780;SDS011;20097;50.832;19.100;2023-07-31T22:23:42;9.05;;;4.10;;
33780;SDS011;20097;50.832;19.100;2023-07-31T22:28:47;9.57;;;4.50;;
33780;SDS011;20097;50.832;19.100;2023-07-31T22:33:53;7.72;;;3.53;;
33780;SDS011;20097;50.832;19.100;2023-07-31T22:38:57;10.73;;;5.07;;
33780;SDS011;20097;50.832;19.100;2023-07-31T22:49:08;6.20;;;3.93;;
33780;SDS011;20097;50.832;19.100;2023-07-31T22:54:12;7.03;;;4.25;;
33780;SDS011;20097;50.832;19.100;2023-07-31T22:59:16;9.93;;;4.20;;
33780;SDS011;20097;50.832;19.100;2023-07-31T23:04:22;8.00;;;4.55;;
33780;SDS011;20097;50.832;19.100;2023-07-31T23:09:26;6.75;;;4.60;;
33780;SDS011;20097;50.832;19.100;2023-07-31T23:14:31;9.20;;;4.80;;
33780;SDS011;20097;50.832;19.100;2023-07-31T23:19:36;10.82;;;4.05;;
33780;SDS011;20097;50.832;19.100;2023-07-31T23:24:40;10.57;;;4.32;;
33780;SDS011;20097;50.832;19.100;2023-07-31T23:29:45;8.48;;;3.95;;
33780;SDS011;20097;50.832;19.100;2023-07-31T23:34:51;5.03;;;3.60;;
33780;SDS011;20097;50.832;19.100;2023-07-31T23:39:55;5.72;;;3.63;;
33780;SDS011;20097;50.832;19.100;2023-07-31T23:50:14;8.98;;;4.80;;
33780;SDS011;20097;50.832;19.100;2023-07-31T23:55:18;8.52;;;4.57;;
